sensor_id;sensor_type;location;lat;lon;timestamp;P1;durP1;ratioP1;P2;durP2;ratioP2
1206;SDS011;593;53.184;8.216;2022-11-20T00:00:00;12.17;;;9.90;;
1206;SDS011;593;53.184;8.216;2022-11-20T00:02:25;16.37;;;10.23;;
1206;SDS011;593;53.184;8.216;2022-11-20T00:04:51;12.57;;;9.93;;
1206;SDS011;593;53.184;8.216;2022-11-20T00:07:16;14.17;;;8.30;;
1206;SDS011;593;53.184;8.216;2022-11-20T00:09:42;9.97;;;8.37;;
1206;SDS011;593;53.184;8.216;2022-11-20T00:12:07;16.87;;;8.57;;
1206;SDS011;593;53.184;8.216;2022-11-20T00:14:32;12.27;;;9.40;;
1206;SDS011;593;53.184;8.216;2022-11-20T00:16:58;11.27;;;8.80;;
1206;SDS011;593;53.184;8.216;2022-11-20T00:19:23;11.37;;;8.47;;
1206;SDS011;593;53.184;8.216;2022-11-20T00:21:49;9.80;;;8.77;;
1206;SDS011;593;53.184;8.216;2022-11-20T00:24:16;10.48;;;8.13;;
1206;SDS011;593;53.184;8.216;2022-11-20T00:26:42;13.90;;;9.57;;
1206;SDS011;593;53.184;8.216;2022-11-20T00:29:08;11.83;;;9.97;;
1206;SDS011;593;53.184;8.216;2022-11-20T00:31:34;13.70;;;8.60;;
1206;SDS011;593;53.184;8.216;2022-11-20T00:34:00;13.67;;;9.37;;
1206;SDS011;593;53.184;8.216;2022-11-20T00:36:26;10.30;;;8.83;;
1206;SDS011;593;53.184;8.216;2022-11-20T00:38:53;9.70;;;8.43;;
1206;SDS011;593;53.184;8.216;2022-11-20T00:41:20;14.50;;;10.82;;
1206;SDS011;593;53.184;8.216;2022-11-20T00:43:46;14.90;;;8.30;;
1206;SDS011;593;53.184;8.216;2022-11-20T00:46:17;13.73;;;9.53;;
1206;SDS011;593;53.184;8.216;2022-11-20T00:48:44;16.48;;;10.57;;
1206;SDS011;593;53.184;8.216;2022-11-20T00:51:14;14.87;;;8.60;;
1206;SDS011;593;53.184;8.216;2022-11-20T00:53:40;14.02;;;8.93;;
1206;SDS011;593;53.184;8.216;2022-11-20T00:56:07;11.17;;;7.90;;
1206;SDS011;593;53.184;8.216;2022-11-20T00:58:39;10.48;;;8.43;;
1206;SDS011;593;53.184;8.216;2022-11-20T01:01:13;10.50;;;8.75;;
1206;SDS011;593;53.184;8.216;2022-11-20T01:03:39;8.95;;;7.50;;
1206;SDS011;593;53.184;8.216;2022-11-20T01:06:16;14.73;;;9.30;;
1206;SDS011;593;53.184;8.216;2022-11-20T01:08:46;11.50;;;8.68;;
1206;SDS011;593;53.184;8.216;2022-11-20T01:11:14;10.57;;;7.68;;
1206;SDS011;593;53.184;8.216;2022-11-20T01:13:44;16.17;;;10.88;;
1206;SDS011;593;53.184;8.216;2022-11-20T01:16:16;12.48;;;8.35;;
1206;SDS011;593;53.184;8.216;2022-11-20T01:18:47;15.43;;;9.20;;
1206;SDS011;593;53.184;8.216;2022-11-20T01:21:16;12.70;;;8.70;;
1206;SDS011;593;53.184;8.216;2022-11-20T01:23:44;9.13;;;8.02;;
1206;SDS011;593;53.184;8.216;2022-11-20T01:26:11;14.07;;;9.40;;
1206;SDS011;593;53.184;8.216;2022-11-20T01:28:38;11.35;;;9.02;;
1206;SDS011;593;53.184;8.216;2022-11-20T01:31:12;13.90;;;10.15;;
1206;SDS011;593;53.184;8.216;2022-11-20T01:33:42;15.75;;;10.20;;
1206;SDS011;593;53.184;8.216;2022-11-20T01:36:08;13.20;;;8.63;;
1206;SDS011;593;53.184;8.216;2022-11-20T01:38:34;9.43;;;8.43;;
1206;SDS011;593;53.184;8.216;2022-11-20T01:41:00;13.97;;;9.53;;
1206;SDS011;593;53.184;8.216;2022-11-20T01:43:25;10.63;;;8.50;;
1206;SDS011;593;53.184;8.216;2022-11-20T01:48:23;10.75;;;8.05;;
1206;SDS011;593;53.184;8.216;2022-11-20T01:50:53;11.55;;;7.57;;
1206;SDS011;593;53.184;8.216;2022-11-20T01:53:21;12.40;;;7.60;;
1206;SDS011;593;53.184;8.216;2022-11-20T01:55:51;10.00;;;7.10;;
1206;SDS011;593;53.184;8.216;2022-11-20T01:58:20;11.18;;;8.57;;
1206;SDS011;593;53.184;8.216;2022-11-20T02:00:51;11.40;;;8.52;;
1206;SDS011;593;53.184;8.216;2022-11-20T02:03:16;10.70;;;7.87;;
1206;SDS011;593;53.184;8.216;2022-11-20T02:05:46;10.65;;;8.00;;
1206;SDS011;593;53.184;8.216;2022-11-20T02:08:16;10.50;;;8.32;;
1206;SDS011;593;53.184;8.216;2022-11-20T02:10:43;8.88;;;7.53;;
1206;SDS011;593;53.184;8.216;2022-11-20T02:13:08;10.80;;;7.47;;
1206;SDS011;593;53.184;8.216;2022-11-20T02:15:52;10.45;;;8.00;;
1206;SDS011;593;53.184;8.216;2022-11-20T02:18:19;10.93;;;7.72;;
1206;SDS011;593;53.184;8.216;2022-11-20T02:20:47;9.20;;;8.23;;
1206;SDS011;593;53.184;8.216;2022-11-20T02:23:19;8.93;;;7.85;;
1206;SDS011;593;53.184;8.216;2022-11-20T02:25:52;10.10;;;6.82;;
1206;SDS011;593;53.184;8.216;2022-11-20T02:28:20;10.90;;;7.30;;
1206;SDS011;593;53.184;8.216;2022-11-20T02:30:45;10.23;;;7.87;;
1206;SDS011;593;53.184;8.216;2022-11-20T02:33:11;12.60;;;8.80;;
1206;SDS011;593;53.184;8.216;2022-11-20T02:35:45;12.20;;;7.07;;
1206;SDS011;593;53.184;8.216;2022-11-20T02:38:11;10.30;;;7.57;;
1206;SDS011;593;53.184;8.216;2022-11-20T02:40:38;13.18;;;7.15;;
1206;SDS011;593;53.184;8.216;2022-11-20T02:43:03;11.23;;;7.90;;
1206;SDS011;593;53.184;8.216;2022-11-20T02:45:29;10.77;;;7.27;;
1206;SDS011;593;53.184;8.216;2022-11-20T02:47:54;9.30;;;6.93;;
1206;SDS011;593;53.184;8.216;2022-11-20T02:50:20;11.73;;;7.97;;
1206;SDS011;593;53.184;8.216;2022-11-20T02:52:45;12.60;;;7.63;;
1206;SDS011;593;53.184;8.216;2022-11-20T02:55:11;11.30;;;7.93;;
1206;SDS011;593;53.184;8.216;2022-11-20T02:57:36;11.50;;;7.70;;
1206;SDS011;593;53.184;8.216;2022-11-20T03:00:03;10.90;;;7.23;;
1206;SDS011;593;53.184;8.216;2022-11-20T03:02:30;11.15;;;7.35;;
1206;SDS011;593;53.184;8.216;2022-11-20T03:04:56;9.40;;;7.47;;
1206;SDS011;593;53.184;8.216;2022-11-20T03:07:21;12.23;;;8.07;;
1206;SDS011;593;53.184;8.216;2022-11-20T03:09:47;11.77;;;7.37;;
1206;SDS011;593;53.184;8.216;2022-11-20T03:12:12;9.57;;;6.70;;
1206;SDS011;593;53.184;8.216;2022-11-20T03:14:38;9.43;;;6.63;;
1206;SDS011;593;53.184;8.216;2022-11-20T03:17:03;9.50;;;7.07;;
1206;SDS011;593;53.184;8.216;2022-11-20T03:19:29;8.40;;;6.90;;
1206;SDS011;593;53.184;8.216;2022-11-20T03:21:54;9.10;;;7.50;;
1206;SDS011;593;53.184;8.216;2022-11-20T03:24:20;8.80;;;5.70;;
1206;SDS011;593;53.184;8.216;2022-11-20T03:26:45;8.83;;;6.50;;
1206;SDS011;593;53.184;8.216;2022-11-20T03:29:10;6.90;;;5.30;;
1206;SDS011;593;53.184;8.216;2022-11-20T03:31:37;8.07;;;5.77;;
1206;SDS011;593;53.184;8.216;2022-11-20T03:34:05;7.85;;;7.03;;
1206;SDS011;593;53.184;8.216;2022-11-20T03:36:31;8.35;;;6.20;;
1206;SDS011;593;53.184;8.216;2022-11-20T03:38:57;6.18;;;5.45;;
1206;SDS011;593;53.184;8.216;2022-11-20T03:41:24;5.70;;;5.00;;
1206;SDS011;593;53.184;8.216;2022-11-20T03:43:55;7.60;;;5.82;;
1206;SDS011;593;53.184;8.216;2022-11-20T03:46:22;6.95;;;5.93;;
1206;SDS011;593;53.184;8.216;2022-11-20T03:48:48;7.87;;;5.53;;
1206;SDS011;593;53.184;8.216;2022-11-20T03:51:18;6.30;;;4.60;;
1206;SDS011;593;53.184;8.216;2022-11-20T03:53:54;7.97;;;5.13;;
1206;SDS011;593;53.184;8.216;2022-11-20T03:56:25;5.70;;;5.10;;
1206;SDS011;593;53.184;8.216;2022-11-20T03:58:53;6.85;;;4.40;;
1206;SDS011;593;53.184;8.216;2022-11-20T04:01:19;6.40;;;5.17;;
1206;SDS011;593;53.184;8.216;2022-11-20T04:03:47;11.02;;;5.07;;
1206;SDS011;593;53.184;8.216;2022-11-20T04:06:15;5.97;;;4.40;;
1206;SDS011;593;53.184;8.216;2022-11-20T04:08:43;6.82;;;5.15;;
1206;SDS011;593;53.184;8.216;2022-11-20T04:13:36;7.97;;;5.25;;
1206;SDS011;593;53.184;8.216;2022-11-20T04:16:01;9.10;;;3.85;;
1206;SDS011;593;53.184;8.216;2022-11-20T04:18:27;6.70;;;4.23;;
1206;SDS011;593;53.184;8.216;2022-11-20T04:20:52;6.47;;;4.93;;
1206;SDS011;593;53.184;8.216;2022-11-20T04:23:18;6.70;;;4.80;;
1206;SDS011;593;53.184;8.216;2022-11-20T04:25:43;6.87;;;4.50;;
1206;SDS011;593;53.184;8.216;2022-11-20T04:28:08;5.83;;;4.77;;
1206;SDS011;593;53.184;8.216;2022-11-20T04:30:34;5.23;;;4.00;;
1206;SDS011;593;53.184;8.216;2022-11-20T04:32:59;5.50;;;4.07;;
1206;SDS011;593;53.184;8.216;2022-11-20T04:35:25;3.20;;;2.90;;
1206;SDS011;593;53.184;8.216;2022-11-20T04:37:53;3.53;;;2.93;;
1206;SDS011;593;53.184;8.216;2022-11-20T04:40:18;4.05;;;3.20;;
1206;SDS011;593;53.184;8.216;2022-11-20T04:42:44;5.23;;;4.07;;
1206;SDS011;593;53.184;8.216;2022-11-20T04:45:09;5.73;;;2.90;;
1206;SDS011;593;53.184;8.216;2022-11-20T04:47:34;3.63;;;3.33;;
1206;SDS011;593;53.184;8.216;2022-11-20T04:50:00;4.20;;;3.80;;
1206;SDS011;593;53.184;8.216;2022-11-20T04:52:25;5.50;;;3.17;;
1206;SDS011;593;53.184;8.216;2022-11-20T04:54:51;3.20;;;2.90;;
1206;SDS011;593;53.184;8.216;2022-11-20T04:57:17;3.55;;;3.10;;
1206;SDS011;593;53.184;8.216;2022-11-20T04:59:43;3.57;;;3.27;;
1206;SDS011;593;53.184;8.216;2022-11-20T05:02:09;6.53;;;2.53;;
1206;SDS011;593;53.184;8.216;2022-11-20T05:04:35;3.88;;;3.17;;
1206;SDS011;593;53.184;8.216;2022-11-20T05:07:00;3.60;;;3.27;;
1206;SDS011;593;53.184;8.216;2022-11-20T05:09:26;5.27;;;3.10;;
1206;SDS011;593;53.184;8.216;2022-11-20T05:11:51;4.50;;;3.30;;
1206;SDS011;593;53.184;8.216;2022-11-20T05:14:16;4.17;;;2.80;;
1206;SDS011;593;53.184;8.216;2022-11-20T05:16:42;4.00;;;3.47;;
1206;SDS011;593;53.184;8.216;2022-11-20T05:19:07;3.37;;;2.83;;
1206;SDS011;593;53.184;8.216;2022-11-20T05:21:32;3.73;;;3.00;;
1206;SDS011;593;53.184;8.216;2022-11-20T05:23:58;3.50;;;3.20;;
1206;SDS011;593;53.184;8.216;2022-11-20T05:26:23;4.73;;;3.30;;
1206;SDS011;593;53.184;8.216;2022-11-20T05:28:49;3.43;;;2.83;;
1206;SDS011;593;53.184;8.216;2022-11-20T05:31:16;5.90;;;3.67;;
1206;SDS011;593;53.184;8.216;2022-11-20T05:33:43;4.38;;;3.10;;
1206;SDS011;593;53.184;8.216;2022-11-20T05:36:10;5.80;;;3.47;;
1206;SDS011;593;53.184;8.216;2022-11-20T05:38:37;3.95;;;3.53;;
1206;SDS011;593;53.184;8.216;2022-11-20T05:41:06;5.22;;;3.75;;
1206;SDS011;593;53.184;8.216;2022-11-20T05:43:33;3.60;;;3.30;;
1206;SDS011;593;53.184;8.216;2022-11-20T05:46:02;5.28;;;3.22;;
1206;SDS011;593;53.184;8.216;2022-11-20T05:48:28;5.25;;;3.33;;
1206;SDS011;593;53.184;8.216;2022-11-20T05:50:54;3.53;;;3.23;;
1206;SDS011;593;53.184;8.216;2022-11-20T05:53:19;4.00;;;3.20;;
1206;SDS011;593;53.184;8.216;2022-11-20T05:55:44;7.37;;;3.67;;
1206;SDS011;593;53.184;8.216;2022-11-20T05:58:10;5.97;;;4.10;;
1206;SDS011;593;53.184;8.216;2022-11-20T06:00:35;6.90;;;4.83;;
1206;SDS011;593;53.184;8.216;2022-11-20T06:03:01;4.30;;;3.60;;
1206;SDS011;593;53.184;8.216;2022-11-20T06:05:26;5.93;;;4.10;;
1206;SDS011;593;53.184;8.216;2022-11-20T06:07:52;5.50;;;4.63;;
1206;SDS011;593;53.184;8.216;2022-11-20T06:10:17;4.67;;;3.90;;
1206;SDS011;593;53.184;8.216;2022-11-20T06:12:43;4.77;;;4.30;;
1206;SDS011;593;53.184;8.216;2022-11-20T06:15:08;5.60;;;4.37;;
1206;SDS011;593;53.184;8.216;2022-11-20T06:17:34;5.80;;;4.00;;
1206;SDS011;593;53.184;8.216;2022-11-20T06:19:59;5.40;;;4.90;;
1206;SDS011;593;53.184;8.216;2022-11-20T06:22:24;8.50;;;4.83;;
1206;SDS011;593;53.184;8.216;2022-11-20T06:24:50;4.50;;;4.10;;
1206;SDS011;593;53.184;8.216;2022-11-20T06:27:15;6.00;;;5.30;;
1206;SDS011;593;53.184;8.216;2022-11-20T06:29:41;6.93;;;4.63;;
1206;SDS011;593;53.184;8.216;2022-11-20T06:32:07;6.93;;;4.77;;
1206;SDS011;593;53.184;8.216;2022-11-20T06:34:32;6.63;;;4.50;;
1206;SDS011;593;53.184;8.216;2022-11-20T06:36:57;7.83;;;4.10;;
1206;SDS011;593;53.184;8.216;2022-11-20T06:39:23;5.67;;;4.53;;
1206;SDS011;593;53.184;8.216;2022-11-20T06:41:48;7.37;;;4.87;;
1206;SDS011;593;53.184;8.216;2022-11-20T06:44:14;7.00;;;5.07;;
1206;SDS011;593;53.184;8.216;2022-11-20T06:46:40;5.13;;;4.40;;
1206;SDS011;593;53.184;8.216;2022-11-20T06:49:05;7.00;;;5.23;;
1206;SDS011;593;53.184;8.216;2022-11-20T06:51:31;9.03;;;6.20;;
1206;SDS011;593;53.184;8.216;2022-11-20T06:53:56;10.10;;;5.73;;
1206;SDS011;593;53.184;8.216;2022-11-20T06:56:21;5.23;;;4.63;;
1206;SDS011;593;53.184;8.216;2022-11-20T06:58:47;8.27;;;5.00;;
1206;SDS011;593;53.184;8.216;2022-11-20T07:01:13;6.17;;;5.20;;
1206;SDS011;593;53.184;8.216;2022-11-20T07:03:40;6.55;;;4.63;;
1206;SDS011;593;53.184;8.216;2022-11-20T07:06:06;7.00;;;4.70;;
1206;SDS011;593;53.184;8.216;2022-11-20T07:08:32;5.43;;;4.30;;
1206;SDS011;593;53.184;8.216;2022-11-20T07:10:58;7.53;;;5.40;;
1206;SDS011;593;53.184;8.216;2022-11-20T07:13:25;8.15;;;5.13;;
1206;SDS011;593;53.184;8.216;2022-11-20T07:15:52;7.18;;;5.40;;
1206;SDS011;593;53.184;8.216;2022-11-20T07:18:17;5.70;;;4.57;;
1206;SDS011;593;53.184;8.216;2022-11-20T07:20:42;7.13;;;4.87;;
1206;SDS011;593;53.184;8.216;2022-11-20T07:23:08;7.70;;;4.53;;
1206;SDS011;593;53.184;8.216;2022-11-20T07:25:33;6.77;;;5.17;;
1206;SDS011;593;53.184;8.216;2022-11-20T07:27:59;7.70;;;5.93;;
1206;SDS011;593;53.184;8.216;2022-11-20T07:30:28;7.28;;;5.38;;
1206;SDS011;593;53.184;8.216;2022-11-20T07:32:54;6.40;;;5.75;;
1206;SDS011;593;53.184;8.216;2022-11-20T07:35:20;6.68;;;4.88;;
1206;SDS011;593;53.184;8.216;2022-11-20T07:37:46;13.77;;;6.00;;
1206;SDS011;593;53.184;8.216;2022-11-20T07:40:13;7.07;;;6.13;;
1206;SDS011;593;53.184;8.216;2022-11-20T07:42:41;5.40;;;4.45;;
1206;SDS011;593;53.184;8.216;2022-11-20T07:45:12;7.40;;;5.32;;
1206;SDS011;593;53.184;8.216;2022-11-20T07:47:37;6.03;;;5.43;;
1206;SDS011;593;53.184;8.216;2022-11-20T07:50:03;6.83;;;5.63;;
1206;SDS011;593;53.184;8.216;2022-11-20T07:52:29;8.50;;;6.10;;
1206;SDS011;593;53.184;8.216;2022-11-20T07:54:54;8.77;;;6.27;;
1206;SDS011;593;53.184;8.216;2022-11-20T07:57:19;6.97;;;5.70;;
1206;SDS011;593;53.184;8.216;2022-11-20T07:59:45;8.50;;;5.93;;
1206;SDS011;593;53.184;8.216;2022-11-20T08:02:11;7.00;;;5.33;;
1206;SDS011;593;53.184;8.216;2022-11-20T08:04:36;7.63;;;6.77;;
1206;SDS011;593;53.184;8.216;2022-11-20T08:07:02;7.53;;;6.70;;
1206;SDS011;593;53.184;8.216;2022-11-20T08:09:27;8.97;;;6.20;;
1206;SDS011;593;53.184;8.216;2022-11-20T08:11:53;7.28;;;6.20;;
1206;SDS011;593;53.184;8.216;2022-11-20T08:14:37;9.80;;;7.10;;
1206;SDS011;593;53.184;8.216;2022-11-20T08:17:03;10.73;;;6.63;;
1206;SDS011;593;53.184;8.216;2022-11-20T08:19:28;9.00;;;7.00;;
1206;SDS011;593;53.184;8.216;2022-11-20T08:21:54;10.18;;;7.25;;
1206;SDS011;593;53.184;8.216;2022-11-20T08:24:20;11.03;;;7.70;;
1206;SDS011;593;53.184;8.216;2022-11-20T08:26:45;10.57;;;7.70;;
1206;SDS011;593;53.184;8.216;2022-11-20T08:29:11;11.67;;;8.67;;
1206;SDS011;593;53.184;8.216;2022-11-20T08:31:37;10.57;;;7.57;;
1206;SDS011;593;53.184;8.216;2022-11-20T08:34:03;10.53;;;7.17;;
1206;SDS011;593;53.184;8.216;2022-11-20T08:36:32;12.80;;;7.20;;
1206;SDS011;593;53.184;8.216;2022-11-20T08:39:07;11.27;;;8.18;;
1206;SDS011;593;53.184;8.216;2022-11-20T08:41:36;9.57;;;7.53;;
1206;SDS011;593;53.184;8.216;2022-11-20T08:44:02;8.60;;;7.60;;
1206;SDS011;593;53.184;8.216;2022-11-20T08:46:39;9.85;;;7.68;;
1206;SDS011;593;53.184;8.216;2022-11-20T08:49:12;8.88;;;7.57;;
1206;SDS011;593;53.184;8.216;2022-11-20T08:51:39;11.80;;;8.20;;
1206;SDS011;593;53.184;8.216;2022-11-20T08:54:05;10.20;;;8.82;;
1206;SDS011;593;53.184;8.216;2022-11-20T08:56:31;11.13;;;8.05;;
1206;SDS011;593;53.184;8.216;2022-11-20T08:58:57;10.02;;;7.28;;
1206;SDS011;593;53.184;8.216;2022-11-20T09:01:26;9.88;;;7.25;;
1206;SDS011;593;53.184;8.216;2022-11-20T09:03:54;10.63;;;8.93;;
1206;SDS011;593;53.184;8.216;2022-11-20T09:06:21;12.18;;;8.60;;
1206;SDS011;593;53.184;8.216;2022-11-20T09:08:47;11.73;;;8.00;;
1206;SDS011;593;53.184;8.216;2022-11-20T09:11:16;10.40;;;7.30;;
1206;SDS011;593;53.184;8.216;2022-11-20T09:13:41;11.67;;;7.40;;
1206;SDS011;593;53.184;8.216;2022-11-20T09:16:07;12.37;;;8.50;;
1206;SDS011;593;53.184;8.216;2022-11-20T09:18:34;10.32;;;7.20;;
1206;SDS011;593;53.184;8.216;2022-11-20T09:21:05;9.85;;;7.05;;
1206;SDS011;593;53.184;8.216;2022-11-20T09:23:32;11.05;;;8.60;;
1206;SDS011;593;53.184;8.216;2022-11-20T09:26:09;10.02;;;8.00;;
1206;SDS011;593;53.184;8.216;2022-11-20T09:28:36;9.80;;;7.07;;
1206;SDS011;593;53.184;8.216;2022-11-20T09:31:04;10.37;;;7.23;;
1206;SDS011;593;53.184;8.216;2022-11-20T09:33:34;9.20;;;7.03;;
1206;SDS011;593;53.184;8.216;2022-11-20T09:36:03;9.93;;;6.88;;
1206;SDS011;593;53.184;8.216;2022-11-20T09:38:29;11.60;;;7.97;;
1206;SDS011;593;53.184;8.216;2022-11-20T09:40:58;10.80;;;7.93;;
1206;SDS011;593;53.184;8.216;2022-11-20T09:46:17;11.13;;;8.15;;
1206;SDS011;593;53.184;8.216;2022-11-20T09:51:28;11.48;;;8.38;;
1206;SDS011;593;53.184;8.216;2022-11-20T09:56:52;12.07;;;8.57;;
1206;SDS011;593;53.184;8.216;2022-11-20T09:59:23;12.48;;;8.20;;
1206;SDS011;593;53.184;8.216;2022-11-20T10:01:57;9.80;;;8.38;;
1206;SDS011;593;53.184;8.216;2022-11-20T10:04:25;15.52;;;9.73;;
1206;SDS011;593;53.184;8.216;2022-11-20T10:07:02;17.23;;;9.67;;
1206;SDS011;593;53.184;8.216;2022-11-20T10:09:32;18.90;;;13.25;;
1206;SDS011;593;53.184;8.216;2022-11-20T10:14:35;12.02;;;9.02;;
1206;SDS011;593;53.184;8.216;2022-11-20T10:20:02;9.15;;;7.95;;
1206;SDS011;593;53.184;8.216;2022-11-20T10:25:39;11.10;;;8.25;;
1206;SDS011;593;53.184;8.216;2022-11-20T10:28:15;10.18;;;7.38;;
1206;SDS011;593;53.184;8.216;2022-11-20T10:30:57;11.65;;;9.18;;
1206;SDS011;593;53.184;8.216;2022-11-20T10:33:26;14.15;;;9.30;;
1206;SDS011;593;53.184;8.216;2022-11-20T10:36:13;11.35;;;8.48;;
1206;SDS011;593;53.184;8.216;2022-11-20T10:38:51;11.77;;;8.27;;
1206;SDS011;593;53.184;8.216;2022-11-20T10:41:24;14.20;;;8.05;;
1206;SDS011;593;53.184;8.216;2022-11-20T10:47:03;8.48;;;7.22;;
1206;SDS011;593;53.184;8.216;2022-11-20T10:49:30;13.55;;;7.70;;
1206;SDS011;593;53.184;8.216;2022-11-20T10:52:04;11.65;;;8.52;;
1206;SDS011;593;53.184;8.216;2022-11-20T10:57:00;10.97;;;7.20;;
1206;SDS011;593;53.184;8.216;2022-11-20T11:02:32;9.20;;;7.75;;
1206;SDS011;593;53.184;8.216;2022-11-20T11:05:04;9.00;;;7.22;;
1206;SDS011;593;53.184;8.216;2022-11-20T11:07:38;8.75;;;7.20;;
1206;SDS011;593;53.184;8.216;2022-11-20T11:12:48;8.48;;;6.30;;
1206;SDS011;593;53.184;8.216;2022-11-20T11:15:24;10.93;;;7.03;;
1206;SDS011;593;53.184;8.216;2022-11-20T11:17:51;6.53;;;5.55;;
1206;SDS011;593;53.184;8.216;2022-11-20T11:20:18;7.77;;;5.30;;
1206;SDS011;593;53.184;8.216;2022-11-20T11:25:22;7.32;;;6.05;;
1206;SDS011;593;53.184;8.216;2022-11-20T11:27:56;6.07;;;5.53;;
1206;SDS011;593;53.184;8.216;2022-11-20T11:30:24;9.40;;;5.55;;
1206;SDS011;593;53.184;8.216;2022-11-20T11:32:50;6.35;;;5.13;;
1206;SDS011;593;53.184;8.216;2022-11-20T11:35:27;7.15;;;5.65;;
1206;SDS011;593;53.184;8.216;2022-11-20T11:38:15;8.73;;;5.80;;
1206;SDS011;593;53.184;8.216;2022-11-20T11:40:44;7.97;;;5.85;;
1206;SDS011;593;53.184;8.216;2022-11-20T11:43:18;12.27;;;5.20;;
1206;SDS011;593;53.184;8.216;2022-11-20T11:46:23;5.40;;;4.60;;
1206;SDS011;593;53.184;8.216;2022-11-20T11:48:56;7.55;;;6.10;;
1206;SDS011;593;53.184;8.216;2022-11-20T11:51:28;8.63;;;6.00;;
1206;SDS011;593;53.184;8.216;2022-11-20T11:54:18;7.30;;;5.40;;
1206;SDS011;593;53.184;8.216;2022-11-20T11:56:48;5.97;;;5.13;;
1206;SDS011;593;53.184;8.216;2022-11-20T11:59:16;5.60;;;4.50;;
1206;SDS011;593;53.184;8.216;2022-11-20T12:01:53;8.60;;;7.20;;
1206;SDS011;593;53.184;8.216;2022-11-20T12:06:52;9.05;;;5.82;;
1206;SDS011;593;53.184;8.216;2022-11-20T12:09:24;8.40;;;6.47;;
1206;SDS011;593;53.184;8.216;2022-11-20T12:12:04;8.68;;;4.93;;
1206;SDS011;593;53.184;8.216;2022-11-20T12:14:36;5.60;;;5.10;;
1206;SDS011;593;53.184;8.216;2022-11-20T12:17:04;6.80;;;4.95;;
1206;SDS011;593;53.184;8.216;2022-11-20T12:19:30;6.40;;;5.03;;
1206;SDS011;593;53.184;8.216;2022-11-20T12:22:21;6.82;;;4.82;;
1206;SDS011;593;53.184;8.216;2022-11-20T12:30:09;5.60;;;4.88;;
1206;SDS011;593;53.184;8.216;2022-11-20T12:33:23;6.80;;;5.38;;
1206;SDS011;593;53.184;8.216;2022-11-20T12:36:07;7.70;;;5.25;;
1206;SDS011;593;53.184;8.216;2022-11-20T12:53:03;8.65;;;5.05;;
1206;SDS011;593;53.184;8.216;2022-11-20T12:55:34;5.28;;;4.47;;
1206;SDS011;593;53.184;8.216;2022-11-20T12:58:17;9.35;;;5.05;;
1206;SDS011;593;53.184;8.216;2022-11-20T13:06:57;4.72;;;4.03;;
1206;SDS011;593;53.184;8.216;2022-11-20T13:09:23;6.57;;;4.93;;
1206;SDS011;593;53.184;8.216;2022-11-20T13:12:03;6.28;;;5.47;;
1206;SDS011;593;53.184;8.216;2022-11-20T13:14:47;6.50;;;5.20;;
1206;SDS011;593;53.184;8.216;2022-11-20T13:19:55;8.15;;;5.07;;
1206;SDS011;593;53.184;8.216;2022-11-20T13:22:42;6.90;;;4.68;;
1206;SDS011;593;53.184;8.216;2022-11-20T13:27:54;8.57;;;5.57;;
1206;SDS011;593;53.184;8.216;2022-11-20T13:30:30;6.88;;;4.50;;
1206;SDS011;593;53.184;8.216;2022-11-20T13:35:54;6.00;;;5.38;;
1206;SDS011;593;53.184;8.216;2022-11-20T13:38:22;8.02;;;6.03;;
1206;SDS011;593;53.184;8.216;2022-11-20T13:40:52;7.07;;;4.77;;
1206;SDS011;593;53.184;8.216;2022-11-20T13:43:47;5.47;;;4.50;;
1206;SDS011;593;53.184;8.216;2022-11-20T13:46:13;5.68;;;5.03;;
1206;SDS011;593;53.184;8.216;2022-11-20T13:48:45;6.87;;;4.70;;
1206;SDS011;593;53.184;8.216;2022-11-20T13:54:04;6.80;;;5.28;;
1206;SDS011;593;53.184;8.216;2022-11-20T13:56:49;10.25;;;5.53;;
1206;SDS011;593;53.184;8.216;2022-11-20T14:02:18;7.13;;;5.13;;
1206;SDS011;593;53.184;8.216;2022-11-20T14:04:47;5.85;;;4.93;;
1206;SDS011;593;53.184;8.216;2022-11-20T14:07:15;7.53;;;5.90;;
1206;SDS011;593;53.184;8.216;2022-11-20T14:10:18;9.98;;;5.40;;
1206;SDS011;593;53.184;8.216;2022-11-20T14:12:44;5.05;;;4.55;;
1206;SDS011;593;53.184;8.216;2022-11-20T14:15:22;5.13;;;4.67;;
1206;SDS011;593;53.184;8.216;2022-11-20T14:17:50;6.28;;;5.32;;
1206;SDS011;593;53.184;8.216;2022-11-20T14:20:15;8.40;;;4.80;;
1206;SDS011;593;53.184;8.216;2022-11-20T14:22:50;6.80;;;4.70;;
1206;SDS011;593;53.184;8.216;2022-11-20T14:27:42;6.17;;;5.57;;
1206;SDS011;593;53.184;8.216;2022-11-20T14:30:12;5.10;;;3.90;;
1206;SDS011;593;53.184;8.216;2022-11-20T14:32:41;5.60;;;4.70;;
1206;SDS011;593;53.184;8.216;2022-11-20T14:35:08;7.15;;;5.20;;
1206;SDS011;593;53.184;8.216;2022-11-20T14:37:40;8.18;;;4.05;;
1206;SDS011;593;53.184;8.216;2022-11-20T14:42:51;7.45;;;5.20;;
1206;SDS011;593;53.184;8.216;2022-11-20T14:45:17;4.97;;;4.33;;
1206;SDS011;593;53.184;8.216;2022-11-20T14:47:44;6.43;;;3.45;;
1206;SDS011;593;53.184;8.216;2022-11-20T14:50:28;6.43;;;3.60;;
1206;SDS011;593;53.184;8.216;2022-11-20T14:52:58;4.80;;;4.30;;
1206;SDS011;593;53.184;8.216;2022-11-20T14:55:34;5.82;;;5.22;;
1206;SDS011;593;53.184;8.216;2022-11-20T14:58:06;4.20;;;3.80;;
1206;SDS011;593;53.184;8.216;2022-11-20T15:01:21;7.20;;;4.50;;
1206;SDS011;593;53.184;8.216;2022-11-20T15:03:57;5.40;;;4.80;;
1206;SDS011;593;53.184;8.216;2022-11-20T15:06:26;5.75;;;4.70;;
1206;SDS011;593;53.184;8.216;2022-11-20T15:08:51;5.30;;;4.30;;
1206;SDS011;593;53.184;8.216;2022-11-20T15:11:18;5.25;;;4.20;;
1206;SDS011;593;53.184;8.216;2022-11-20T15:13:48;6.32;;;4.70;;
1206;SDS011;593;53.184;8.216;2022-11-20T15:16:16;7.67;;;4.77;;
1206;SDS011;593;53.184;8.216;2022-11-20T15:18:43;6.13;;;4.45;;
1206;SDS011;593;53.184;8.216;2022-11-20T15:21:18;6.57;;;4.60;;
1206;SDS011;593;53.184;8.216;2022-11-20T15:23:45;4.38;;;3.97;;
1206;SDS011;593;53.184;8.216;2022-11-20T15:26:11;5.50;;;4.33;;
1206;SDS011;593;53.184;8.216;2022-11-20T15:28:40;7.65;;;5.25;;
1206;SDS011;593;53.184;8.216;2022-11-20T15:31:10;3.85;;;3.55;;
1206;SDS011;593;53.184;8.216;2022-11-20T15:33:37;6.78;;;4.88;;
1206;SDS011;593;53.184;8.216;2022-11-20T15:36:03;8.03;;;5.40;;
1206;SDS011;593;53.184;8.216;2022-11-20T15:38:28;6.50;;;5.57;;
1206;SDS011;593;53.184;8.216;2022-11-20T15:40:53;7.40;;;6.17;;
1206;SDS011;593;53.184;8.216;2022-11-20T15:43:19;9.90;;;5.93;;
1206;SDS011;593;53.184;8.216;2022-11-20T15:45:45;7.70;;;5.70;;
1206;SDS011;593;53.184;8.216;2022-11-20T15:48:20;6.38;;;4.90;;
1206;SDS011;593;53.184;8.216;2022-11-20T15:50:52;7.20;;;5.38;;
1206;SDS011;593;53.184;8.216;2022-11-20T15:53:24;6.82;;;5.68;;
1206;SDS011;593;53.184;8.216;2022-11-20T15:55:49;6.90;;;5.57;;
1206;SDS011;593;53.184;8.216;2022-11-20T15:58:15;5.90;;;5.13;;
1206;SDS011;593;53.184;8.216;2022-11-20T16:00:43;8.32;;;5.60;;
1206;SDS011;593;53.184;8.216;2022-11-20T16:03:13;7.40;;;5.75;;
1206;SDS011;593;53.184;8.216;2022-11-20T16:05:39;6.00;;;5.50;;
1206;SDS011;593;53.184;8.216;2022-11-20T16:08:05;6.50;;;5.53;;
1206;SDS011;593;53.184;8.216;2022-11-20T16:10:31;6.93;;;5.97;;
1206;SDS011;593;53.184;8.216;2022-11-20T16:12:56;10.10;;;7.80;;
1206;SDS011;593;53.184;8.216;2022-11-20T16:15:40;12.95;;;8.57;;
1206;SDS011;593;53.184;8.216;2022-11-20T16:18:16;9.48;;;7.60;;
1206;SDS011;593;53.184;8.216;2022-11-20T16:20:44;12.68;;;7.55;;
1206;SDS011;593;53.184;8.216;2022-11-20T16:23:10;10.38;;;6.90;;
1206;SDS011;593;53.184;8.216;2022-11-20T16:25:36;11.00;;;7.67;;
1206;SDS011;593;53.184;8.216;2022-11-20T16:28:01;10.83;;;7.37;;
1206;SDS011;593;53.184;8.216;2022-11-20T16:30:27;10.70;;;7.80;;
1206;SDS011;593;53.184;8.216;2022-11-20T16:32:52;10.30;;;7.93;;
1206;SDS011;593;53.184;8.216;2022-11-20T16:35:17;11.30;;;8.70;;
1206;SDS011;593;53.184;8.216;2022-11-20T16:37:43;8.90;;;7.10;;
1206;SDS011;593;53.184;8.216;2022-11-20T16:40:09;14.17;;;9.00;;
1206;SDS011;593;53.184;8.216;2022-11-20T16:42:35;12.65;;;8.20;;
1206;SDS011;593;53.184;8.216;2022-11-20T16:45:02;12.70;;;9.13;;
1206;SDS011;593;53.184;8.216;2022-11-20T16:47:32;18.83;;;9.85;;
1206;SDS011;593;53.184;8.216;2022-11-20T16:50:01;11.88;;;10.68;;
1206;SDS011;593;53.184;8.216;2022-11-20T16:52:27;13.30;;;10.75;;
1206;SDS011;593;53.184;8.216;2022-11-20T16:54:53;13.27;;;9.82;;
1206;SDS011;593;53.184;8.216;2022-11-20T16:57:19;11.20;;;8.93;;